sensor_id;sensor_type;location;lat;lon;timestamp;temperature;humidity
22813;DHT22;11573;51.334;3.244;2023-03-01T00:01:05;3.40;1.00
22813;DHT22;11573;51.334;3.244;2023-03-01T00:03:33;3.40;1.00
22813;DHT22;11573;51.334;3.244;2023-03-01T00:06:01;3.40;1.00
22813;DHT22;11573;51.334;3.244;2023-03-01T00:08:29;3.30;1.00
22813;DHT22;11573;51.334;3.244;2023-03-01T00:13:35;3.30;1.00
22813;DHT22;11573;51.334;3.244;2023-03-01T00:16:07;3.30;1.00
22813;DHT22;11573;51.334;3.244;2023-03-01T00:18:34;3.20;1.00
22813;DHT22;11573;51.334;3.244;2023-03-01T00:21:02;3.20;1.00
22813;DHT22;11573;51.334;3.244;2023-03-01T00:23:29;3.20;1.00
22813;DHT22;11573;51.334;3.244;2023-03-01T00:25:56;3.20;1.00
22813;DHT22;11573;51.334;3.244;2023-03-01T00:28:23;3.20;1.00
22813;DHT22;11573;51.334;3.244;2023-03-01T00:30:50;3.20;1.00
22813;DHT22;11573;51.334;3.244;2023-03-01T00:33:18;3.20;1.00
22813;DHT22;11573;51.334;3.244;2023-03-01T00:35:45;3.20;1.00
22813;DHT22;11573;51.334;3.244;2023-03-01T00:38:12;3.30;1.00
22813;DHT22;11573;51.334;3.244;2023-03-01T00:40:39;3.30;5.50
22813;DHT22;11573;51.334;3.244;2023-03-01T00:43:06;3.20;9.00
22813;DHT22;11573;51.334;3.244;2023-03-01T00:45:33;3.20;11.80
22813;DHT22;11573;51.334;3.244;2023-03-01T00:48:00;3.20;16.30
22813;DHT22;11573;51.334;3.244;2023-03-01T00:50:28;3.20;18.90
22813;DHT22;11573;51.334;3.244;2023-03-01T00:52:55;3.10;20.20
22813;DHT22;11573;51.334;3.244;2023-03-01T00:55:24;3.10;26.00
22813;DHT22;11573;51.334;3.244;2023-03-01T00:57:51;3.00;29.10
22813;DHT22;11573;51.334;3.244;2023-03-01T01:00:19;3.00;33.80
22813;DHT22;11573;51.334;3.244;2023-03-01T01:02:48;3.00;38.30
22813;DHT22;11573;51.334;3.244;2023-03-01T01:05:15;3.00;41.60
22813;DHT22;11573;51.334;3.244;2023-03-01T01:07:48;3.00;42.70
22813;DHT22;11573;51.334;3.244;2023-03-01T01:10:15;3.00;44.00
22813;DHT22;11573;51.334;3.244;2023-03-01T01:12:46;2.90;46.30
22813;DHT22;11573;51.334;3.244;2023-03-01T01:15:13;2.90;49.10
22813;DHT22;11573;51.334;3.244;2023-03-01T01:17:43;2.90;51.60
22813;DHT22;11573;51.334;3.244;2023-03-01T01:20:11;2.90;53.20
22813;DHT22;11573;51.334;3.244;2023-03-01T01:22:38;2.90;54.70
22813;DHT22;11573;51.334;3.244;2023-03-01T01:25:05;2.90;54.80
22813;DHT22;11573;51.334;3.244;2023-03-01T01:27:33;3.00;53.00
22813;DHT22;11573;51.334;3.244;2023-03-01T01:30:00;2.90;52.10
22813;DHT22;11573;51.334;3.244;2023-03-01T01:32:27;2.90;51.30
22813;DHT22;11573;51.334;3.244;2023-03-01T01:34:54;2.90;49.30
22813;DHT22;11573;51.334;3.244;2023-03-01T01:37:21;2.90;48.80
22813;DHT22;11573;51.334;3.244;2023-03-01T01:39:49;2.90;48.30
22813;DHT22;11573;51.334;3.244;2023-03-01T01:42:17;2.90;48.50
22813;DHT22;11573;51.334;3.244;2023-03-01T01:44:46;2.90;47.40
22813;DHT22;11573;51.334;3.244;2023-03-01T01:47:18;2.80;46.00
22813;DHT22;11573;51.334;3.244;2023-03-01T01:49:48;2.80;46.00
22813;DHT22;11573;51.334;3.244;2023-03-01T01:52:26;2.70;46.00
22813;DHT22;11573;51.334;3.244;2023-03-01T01:55:11;2.70;47.00
22813;DHT22;11573;51.334;3.244;2023-03-01T01:57:54;2.70;46.50
22813;DHT22;11573;51.334;3.244;2023-03-01T02:00:26;2.80;47.00
22813;DHT22;11573;51.334;3.244;2023-03-01T02:03:20;2.80;48.00
22813;DHT22;11573;51.334;3.244;2023-03-01T02:06:04;2.80;47.40
22813;DHT22;11573;51.334;3.244;2023-03-01T02:08:36;2.80;46.20
22813;DHT22;11573;51.334;3.244;2023-03-01T02:11:05;2.80;46.90
22813;DHT22;11573;51.334;3.244;2023-03-01T02:13:33;2.80;48.10
22813;DHT22;11573;51.334;3.244;2023-03-01T02:16:07;2.80;49.00
22813;DHT22;11573;51.334;3.244;2023-03-01T02:18:35;2.80;49.90
22813;DHT22;11573;51.334;3.244;2023-03-01T02:23:50;2.80;54.80
22813;DHT22;11573;51.334;3.244;2023-03-01T02:28:55;2.70;59.30
22813;DHT22;11573;51.334;3.244;2023-03-01T02:31:22;2.70;60.40
22813;DHT22;11573;51.334;3.244;2023-03-01T02:34:16;2.70;65.90
22813;DHT22;11573;51.334;3.244;2023-03-01T02:36:47;2.70;67.00
22813;DHT22;11573;51.334;3.244;2023-03-01T02:39:18;2.70;68.50
22813;DHT22;11573;51.334;3.244;2023-03-01T02:41:51;2.70;71.00
22813;DHT22;11573;51.334;3.244;2023-03-01T02:44:19;2.70;70.10
22813;DHT22;11573;51.334;3.244;2023-03-01T02:46:51;2.70;68.90
22813;DHT22;11573;51.334;3.244;2023-03-01T02:55:08;2.50;73.00
22813;DHT22;11573;51.334;3.244;2023-03-01T02:57:38;2.50;78.40
22813;DHT22;11573;51.334;3.244;2023-03-01T03:00:13;2.50;76.80
22813;DHT22;11573;51.334;3.244;2023-03-01T03:02:52;2.50;74.60
22813;DHT22;11573;51.334;3.244;2023-03-01T03:05:25;2.40;76.10
22813;DHT22;11573;51.334;3.244;2023-03-01T03:07:56;2.40;75.80
22813;DHT22;11573;51.334;3.244;2023-03-01T03:10:28;2.30;74.40
22813;DHT22;11573;51.334;3.244;2023-03-01T03:13:04;2.30;77.50
22813;DHT22;11573;51.334;3.244;2023-03-01T03:15:33;2.30;75.80
22813;DHT22;11573;51.334;3.244;2023-03-01T03:18:06;2.30;75.80
22813;DHT22;11573;51.334;3.244;2023-03-01T03:20:34;2.30;75.70
22813;DHT22;11573;51.334;3.244;2023-03-01T03:23:01;2.30;74.30
22813;DHT22;11573;51.334;3.244;2023-03-01T03:25:29;2.30;74.10
22813;DHT22;11573;51.334;3.244;2023-03-01T03:27:57;2.30;69.60
22813;DHT22;11573;51.334;3.244;2023-03-01T03:30:29;2.30;67.50
22813;DHT22;11573;51.334;3.244;2023-03-01T03:32:58;2.30;64.10
22813;DHT22;11573;51.334;3.244;2023-03-01T03:35:28;2.40;62.10
22813;DHT22;11573;51.334;3.244;2023-03-01T03:37:59;2.40;55.30
22813;DHT22;11573;51.334;3.244;2023-03-01T03:43:02;2.50;35.10
22813;DHT22;11573;51.334;3.244;2023-03-01T03:45:30;2.60;26.30
22813;DHT22;11573;51.334;3.244;2023-03-01T03:48:00;2.70;24.30
22813;DHT22;11573;51.334;3.244;2023-03-01T03:50:28;2.80;17.80
22813;DHT22;11573;51.334;3.244;2023-03-01T03:52:55;2.90;16.00
22813;DHT22;11573;51.334;3.244;2023-03-01T03:55:22;3.00;14.70
22813;DHT22;11573;51.334;3.244;2023-03-01T03:57:49;3.00;12.90
22813;DHT22;11573;51.334;3.244;2023-03-01T04:00:20;3.00;13.30
22813;DHT22;11573;51.334;3.244;2023-03-01T04:02:48;3.00;14.30
22813;DHT22;11573;51.334;3.244;2023-03-01T04:05:18;3.00;18.20
22813;DHT22;11573;51.334;3.244;2023-03-01T04:07:46;3.10;18.70
22813;DHT22;11573;51.334;3.244;2023-03-01T04:10:15;3.10;19.40
22813;DHT22;11573;51.334;3.244;2023-03-01T04:12:43;3.10;18.40
22813;DHT22;11573;51.334;3.244;2023-03-01T04:15:13;3.10;19.60
22813;DHT22;11573;51.334;3.244;2023-03-01T04:17:41;3.10;18.70
22813;DHT22;11573;51.334;3.244;2023-03-01T04:20:15;3.00;16.80
22813;DHT22;11573;51.334;3.244;2023-03-01T04:22:44;3.00;14.00
22813;DHT22;11573;51.334;3.244;2023-03-01T04:25:13;3.00;13.00
22813;DHT22;11573;51.334;3.244;2023-03-01T04:27:41;2.90;11.70
22813;DHT22;11573;51.334;3.244;2023-03-01T04:30:09;2.80;9.80
22813;DHT22;11573;51.334;3.244;2023-03-01T04:32:36;2.80;8.20
22813;DHT22;11573;51.334;3.244;2023-03-01T04:35:03;2.80;7.40
22813;DHT22;11573;51.334;3.244;2023-03-01T04:37:31;2.80;6.70
22813;DHT22;11573;51.334;3.244;2023-03-01T04:39:58;2.70;5.60
22813;DHT22;11573;51.334;3.244;2023-03-01T04:42:25;2.80;4.90
22813;DHT22;11573;51.334;3.244;2023-03-01T04:44:52;2.70;2.30
22813;DHT22;11573;51.334;3.244;2023-03-01T04:47:19;2.80;2.70
22813;DHT22;11573;51.334;3.244;2023-03-01T04:49:46;2.70;2.00
22813;DHT22;11573;51.334;3.244;2023-03-01T04:52:13;2.70;1.60
22813;DHT22;11573;51.334;3.244;2023-03-01T04:54:41;2.70;1.00
22813;DHT22;11573;51.334;3.244;2023-03-01T04:57:09;2.70;1.00
22813;DHT22;11573;51.334;3.244;2023-03-01T04:59:37;2.70;1.00
22813;DHT22;11573;51.334;3.244;2023-03-01T05:02:04;2.60;1.00
22813;DHT22;11573;51.334;3.244;2023-03-01T05:04:31;2.60;1.00
22813;DHT22;11573;51.334;3.244;2023-03-01T05:06:58;2.60;1.00
22813;DHT22;11573;51.334;3.244;2023-03-01T05:09:25;2.60;1.00
22813;DHT22;11573;51.334;3.244;2023-03-01T05:11:53;2.50;1.00
22813;DHT22;11573;51.334;3.244;2023-03-01T05:14:20;2.50;1.00
22813;DHT22;11573;51.334;3.244;2023-03-01T05:16:47;2.50;1.00
22813;DHT22;11573;51.334;3.244;2023-03-01T05:19:14;2.50;1.00
22813;DHT22;11573;51.334;3.244;2023-03-01T05:21:49;2.50;2.00
22813;DHT22;11573;51.334;3.244;2023-03-01T05:24:30;2.50;4.50
22813;DHT22;11573;51.334;3.244;2023-03-01T05:26:58;2.50;4.70
22813;DHT22;11573;51.334;3.244;2023-03-01T05:29:26;2.50;6.20
22813;DHT22;11573;51.334;3.244;2023-03-01T05:31:55;2.50;7.70
22813;DHT22;11573;51.334;3.244;2023-03-01T05:34:25;2.40;8.70
22813;DHT22;11573;51.334;3.244;2023-03-01T05:36:53;2.40;9.50
22813;DHT22;11573;51.334;3.244;2023-03-01T05:39:24;2.30;10.90
22813;DHT22;11573;51.334;3.244;2023-03-01T05:41:54;2.30;12.10
22813;DHT22;11573;51.334;3.244;2023-03-01T05:44:21;2.30;12.00
22813;DHT22;11573;51.334;3.244;2023-03-01T05:46:48;2.20;11.60
22813;DHT22;11573;51.334;3.244;2023-03-01T05:49:16;2.20;9.20
22813;DHT22;11573;51.334;3.244;2023-03-01T05:51:48;2.20;8.50
22813;DHT22;11573;51.334;3.244;2023-03-01T05:54:15;2.10;6.90
22813;DHT22;11573;51.334;3.244;2023-03-01T05:56:43;2.10;4.50
22813;DHT22;11573;51.334;3.244;2023-03-01T05:59:11;2.00;5.10
22813;DHT22;11573;51.334;3.244;2023-03-01T06:01:38;2.00;5.60
22813;DHT22;11573;51.334;3.244;2023-03-01T06:04:05;2.00;6.00
22813;DHT22;11573;51.334;3.244;2023-03-01T06:06:36;1.90;5.60
22813;DHT22;11573;51.334;3.244;2023-03-01T06:09:07;1.90;4.90
22813;DHT22;11573;51.334;3.244;2023-03-01T06:11:36;1.80;5.60
22813;DHT22;11573;51.334;3.244;2023-03-01T06:14:04;1.80;6.00
22813;DHT22;11573;51.334;3.244;2023-03-01T06:16:33;1.70;7.30
22813;DHT22;11573;51.334;3.244;2023-03-01T06:19:00;1.70;8.30
22813;DHT22;11573;51.334;3.244;2023-03-01T06:21:27;1.70;9.10
22813;DHT22;11573;51.334;3.244;2023-03-01T06:23:54;1.70;9.10
22813;DHT22;11573;51.334;3.244;2023-03-01T06:26:21;1.70;9.50
22813;DHT22;11573;51.334;3.244;2023-03-01T06:28:48;1.70;9.80
22813;DHT22;11573;51.334;3.244;2023-03-01T06:31:16;1.70;9.80
22813;DHT22;11573;51.334;3.244;2023-03-01T06:33:42;1.70;9.30
22813;DHT22;11573;51.334;3.244;2023-03-01T06:36:11;1.70;8.60
22813;DHT22;11573;51.334;3.244;2023-03-01T06:38:38;1.70;9.10
22813;DHT22;11573;51.334;3.244;2023-03-01T06:41:07;1.70;9.10
22813;DHT22;11573;51.334;3.244;2023-03-01T06:43:34;1.70;8.30
22813;DHT22;11573;51.334;3.244;2023-03-01T06:46:04;1.70;7.90
22813;DHT22;11573;51.334;3.244;2023-03-01T06:48:33;1.80;6.70
22813;DHT22;11573;51.334;3.244;2023-03-01T06:51:01;1.90;5.90
22813;DHT22;11573;51.334;3.244;2023-03-01T06:53:29;1.90;4.50
22813;DHT22;11573;51.334;3.244;2023-03-01T06:55:57;2.00;3.10
22813;DHT22;11573;51.334;3.244;2023-03-01T06:58:24;2.10;1.30
22813;DHT22;11573;51.334;3.244;2023-03-01T07:00:52;2.10;1.00
22813;DHT22;11573;51.334;3.244;2023-03-01T07:03:19;2.20;1.00
22813;DHT22;11573;51.334;3.244;2023-03-01T07:05:49;2.30;1.00
22813;DHT22;11573;51.334;3.244;2023-03-01T07:08:18;2.30;1.00
22813;DHT22;11573;51.334;3.244;2023-03-01T07:10:45;2.30;1.00
22813;DHT22;11573;51.334;3.244;2023-03-01T07:13:12;2.40;1.00
22813;DHT22;11573;51.334;3.244;2023-03-01T07:15:40;2.40;1.00
22813;DHT22;11573;51.334;3.244;2023-03-01T07:18:07;2.50;1.00
22813;DHT22;11573;51.334;3.244;2023-03-01T07:20:34;2.60;1.00
22813;DHT22;11573;51.334;3.244;2023-03-01T07:23:01;2.60;1.00
22813;DHT22;11573;51.334;3.244;2023-03-01T07:25:28;2.70;1.00
22813;DHT22;11573;51.334;3.244;2023-03-01T07:27:56;2.70;1.00
22813;DHT22;11573;51.334;3.244;2023-03-01T07:30:24;2.80;1.00
22813;DHT22;11573;51.334;3.244;2023-03-01T07:32:55;2.90;1.00
22813;DHT22;11573;51.334;3.244;2023-03-01T07:35:23;2.90;1.00
22813;DHT22;11573;51.334;3.244;2023-03-01T07:37:51;3.00;1.00
22813;DHT22;11573;51.334;3.244;2023-03-01T07:40:19;3.10;1.00
22813;DHT22;11573;51.334;3.244;2023-03-01T07:42:46;3.20;1.00
22813;DHT22;11573;51.334;3.244;2023-03-01T07:45:13;3.20;1.00
22813;DHT22;11573;51.334;3.244;2023-03-01T07:47:40;3.30;1.00
22813;DHT22;11573;51.334;3.244;2023-03-01T07:50:08;3.40;1.00
22813;DHT22;11573;51.334;3.244;2023-03-01T07:52:35;3.50;1.00
22813;DHT22;11573;51.334;3.244;2023-03-01T07:55:03;3.50;1.00
22813;DHT22;11573;51.334;3.244;2023-03-01T07:57:30;3.60;1.00
22813;DHT22;11573;51.334;3.244;2023-03-01T07:59:58;3.70;1.00
22813;DHT22;11573;51.334;3.244;2023-03-01T08:02:25;3.70;1.00
22813;DHT22;11573;51.334;3.244;2023-03-01T08:04:52;3.80;1.00
22813;DHT22;11573;51.334;3.244;2023-03-01T08:07:19;3.80;1.00
22813;DHT22;11573;51.334;3.244;2023-03-01T08:09:46;3.90;1.00
22813;DHT22;11573;51.334;3.244;2023-03-01T08:12:13;4.00;1.00
22813;DHT22;11573;51.334;3.244;2023-03-01T08:14:40;4.00;1.00
22813;DHT22;11573;51.334;3.244;2023-03-01T08:17:07;4.10;1.00
22813;DHT22;11573;51.334;3.244;2023-03-01T08:19:35;4.20;1.00
22813;DHT22;11573;51.334;3.244;2023-03-01T08:22:02;4.20;1.00
22813;DHT22;11573;51.334;3.244;2023-03-01T08:24:29;4.30;1.00
22813;DHT22;11573;51.334;3.244;2023-03-01T08:26:57;4.20;1.00
22813;DHT22;11573;51.334;3.244;2023-03-01T08:29:24;4.30;1.00
22813;DHT22;11573;51.334;3.244;2023-03-01T08:31:51;4.30;1.00
22813;DHT22;11573;51.334;3.244;2023-03-01T08:34:19;4.30;1.00
22813;DHT22;11573;51.334;3.244;2023-03-01T08:36:46;4.40;1.00
22813;DHT22;11573;51.334;3.244;2023-03-01T08:39:15;4.40;1.00
22813;DHT22;11573;51.334;3.244;2023-03-01T08:41:43;4.50;1.00
22813;DHT22;11573;51.334;3.244;2023-03-01T08:44:14;4.50;1.00
22813;DHT22;11573;51.334;3.244;2023-03-01T08:46:44;4.50;1.00
22813;DHT22;11573;51.334;3.244;2023-03-01T08:49:16;4.60;1.00
22813;DHT22;11573;51.334;3.244;2023-03-01T08:51:44;4.50;1.00
22813;DHT22;11573;51.334;3.244;2023-03-01T08:54:17;4.60;1.00
22813;DHT22;11573;51.334;3.244;2023-03-01T08:56:45;4.70;1.00
22813;DHT22;11573;51.334;3.244;2023-03-01T08:59:16;4.70;99.90
22813;DHT22;11573;51.334;3.244;2023-03-01T09:01:44;4.80;1.00
22813;DHT22;11573;51.334;3.244;2023-03-01T09:04:12;4.90;1.00
22813;DHT22;11573;51.334;3.244;2023-03-01T09:06:39;5.00;1.00
22813;DHT22;11573;51.334;3.244;2023-03-01T09:09:14;5.00;99.90
22813;DHT22;11573;51.334;3.244;2023-03-01T09:11:43;5.00;99.90
22813;DHT22;11573;51.334;3.244;2023-03-01T09:14:13;5.00;99.90
22813;DHT22;11573;51.334;3.244;2023-03-01T09:16:40;5.00;99.90
22813;DHT22;11573;51.334;3.244;2023-03-01T09:19:07;5.10;99.90
22813;DHT22;11573;51.334;3.244;2023-03-01T09:21:34;5.00;99.90
22813;DHT22;11573;51.334;3.244;2023-03-01T09:24:14;5.00;99.90
22813;DHT22;11573;51.334;3.244;2023-03-01T09:26:42;5.00;99.90
22813;DHT22;11573;51.334;3.244;2023-03-01T09:29:09;5.10;99.90
22813;DHT22;11573;51.334;3.244;2023-03-01T09:31:37;5.20;99.90
22813;DHT22;11573;51.334;3.244;2023-03-01T09:34:05;5.20;99.90
22813;DHT22;11573;51.334;3.244;2023-03-01T09:36:32;5.30;99.90
22813;DHT22;11573;51.334;3.244;2023-03-01T09:39:01;5.30;99.90
22813;DHT22;11573;51.334;3.244;2023-03-01T09:46:57;5.20;99.90
22813;DHT22;11573;51.334;3.244;2023-03-01T09:49:35;5.30;99.90
22813;DHT22;11573;51.334;3.244;2023-03-01T09:52:13;5.30;99.90
22813;DHT22;11573;51.334;3.244;2023-03-01T09:54:49;5.30;99.90
22813;DHT22;11573;51.334;3.244;2023-03-01T09:57:35;5.40;99.90
22813;DHT22;11573;51.334;3.244;2023-03-01T10:06:06;5.60;99.90
22813;DHT22;11573;51.334;3.244;2023-03-01T10:11:20;5.50;99.90
22813;DHT22;11573;51.334;3.244;2023-03-01T10:19:14;5.40;99.90
22813;DHT22;11573;51.334;3.244;2023-03-01T10:21:45;5.40;99.90
22813;DHT22;11573;51.334;3.244;2023-03-01T10:24:18;5.40;99.90
22813;DHT22;11573;51.334;3.244;2023-03-01T10:26:54;5.60;99.90
22813;DHT22;11573;51.334;3.244;2023-03-01T10:29:39;5.50;99.90
22813;DHT22;11573;51.334;3.244;2023-03-01T10:32:10;5.60;99.90
22813;DHT22;11573;51.334;3.244;2023-03-01T10:34:38;5.60;99.90
22813;DHT22;11573;51.334;3.244;2023-03-01T10:37:14;5.60;99.90
22813;DHT22;11573;51.334;3.244;2023-03-01T10:40:05;5.60;99.90
22813;DHT22;11573;51.334;3.244;2023-03-01T10:42:57;5.70;99.90
22813;DHT22;11573;51.334;3.244;2023-03-01T10:45:36;5.80;99.90
22813;DHT22;11573;51.334;3.244;2023-03-01T10:51:04;5.90;99.90
22813;DHT22;11573;51.334;3.244;2023-03-01T10:53:44;5.80;99.90
22813;DHT22;11573;51.334;3.244;2023-03-01T10:56:15;5.80;99.90
22813;DHT22;11573;51.334;3.244;2023-03-01T10:59:03;5.90;99.90
22813;DHT22;11573;51.334;3.244;2023-03-01T11:01:34;5.80;99.90
22813;DHT22;11573;51.334;3.244;2023-03-01T11:06:34;6.00;99.90
22813;DHT22;11573;51.334;3.244;2023-03-01T11:09:21;5.90;99.90
22813;DHT22;11573;51.334;3.244;2023-03-01T11:11:57;5.90;99.90
22813;DHT22;11573;51.334;3.244;2023-03-01T11:14:26;5.90;99.90
22813;DHT22;11573;51.334;3.244;2023-03-01T11:17:23;6.00;99.90
22813;DHT22;11573;51.334;3.244;2023-03-01T11:22:36;6.20;99.90
22813;DHT22;11573;51.334;3.244;2023-03-01T11:25:12;6.10;99.90
22813;DHT22;11573;51.334;3.244;2023-03-01T11:27:43;6.10;99.90
22813;DHT22;11573;51.334;3.244;2023-03-01T11:30:38;6.00;99.90
22813;DHT22;11573;51.334;3.244;2023-03-01T11:33:49;5.90;99.90
22813;DHT22;11573;51.334;3.244;2023-03-01T11:37:10;6.00;99.90
22813;DHT22;11573;51.334;3.244;2023-03-01T11:39:51;5.90;99.90
22813;DHT22;11573;51.334;3.244;2023-03-01T11:45:15;6.10;99.90
22813;DHT22;11573;51.334;3.244;2023-03-01T11:50:34;6.30;99.90
22813;DHT22;11573;51.334;3.244;2023-03-01T11:56:03;6.30;99.90
22813;DHT22;11573;51.334;3.244;2023-03-01T12:01:21;6.30;99.90
22813;DHT22;11573;51.334;3.244;2023-03-01T12:06:52;6.10;99.90
22813;DHT22;11573;51.334;3.244;2023-03-01T12:12:17;6.20;99.90
22813;DHT22;11573;51.334;3.244;2023-03-01T12:32:15;6.60;99.90
22813;DHT22;11573;51.334;3.244;2023-03-01T12:37:54;6.80;99.90
22813;DHT22;11573;51.334;3.244;2023-03-01T12:46:08;6.70;99.90
22813;DHT22;11573;51.334;3.244;2023-03-01T12:51:27;6.80;99.90
22813;DHT22;11573;51.334;3.244;2023-03-01T12:53:57;6.80;99.90
22813;DHT22;11573;51.334;3.244;2023-03-01T12:56:29;6.80;99.90
22813;DHT22;11573;51.334;3.244;2023-03-01T13:04:26;6.80;99.90
22813;DHT22;11573;51.334;3.244;2023-03-01T13:07:15;6.70;99.90
22813;DHT22;11573;51.334;3.244;2023-03-01T13:15:33;6.90;99.90
22813;DHT22;11573;51.334;3.244;2023-03-01T13:20:46;7.00;99.90
22813;DHT22;11573;51.334;3.244;2023-03-01T13:23:25;7.00;99.90
22813;DHT22;11573;51.334;3.244;2023-03-01T13:28:39;7.00;99.90
22813;DHT22;11573;51.334;3.244;2023-03-01T13:34:03;7.10;99.90
22813;DHT22;11573;51.334;3.244;2023-03-01T13:39:04;7.30;99.90
22813;DHT22;11573;51.334;3.244;2023-03-01T13:46:57;7.00;99.90
22813;DHT22;11573;51.334;3.244;2023-03-01T13:49:29;7.10;99.90
22813;DHT22;11573;51.334;3.244;2023-03-01T13:52:45;7.10;99.90
22813;DHT22;11573;51.334;3.244;2023-03-01T13:55:34;7.30;99.90
22813;DHT22;11573;51.334;3.244;2023-03-01T13:58:14;7.20;99.90
22813;DHT22;11573;51.334;3.244;2023-03-01T14:00:42;7.30;99.90
22813;DHT22;11573;51.334;3.244;2023-03-01T14:03:20;7.20;99.90
22813;DHT22;11573;51.334;3.244;2023-03-01T14:06:09;7.20;99.90
22813;DHT22;11573;51.334;3.244;2023-03-01T14:08:44;7.10;99.90
22813;DHT22;11573;51.334;3.244;2023-03-01T14:11:24;7.00;99.90
22813;DHT22;11573;51.334;3.244;2023-03-01T14:14:57;7.10;99.90
22813;DHT22;11573;51.334;3.244;2023-03-01T14:19:55;7.20;99.90
22813;DHT22;11573;51.334;3.244;2023-03-01T14:22:26;7.30;99.90
22813;DHT22;11573;51.334;3.244;2023-03-01T14:24:56;7.30;99.90
22813;DHT22;11573;51.334;3.244;2023-03-01T14:27:37;7.10;99.90
22813;DHT22;11573;51.334;3.244;2023-03-01T14:30:20;7.20;99.90
22813;DHT22;11573;51.334;3.244;2023-03-01T14:32:57;7.10;99.90
22813;DHT22;11573;51.334;3.244;2023-03-01T14:35:34;7.10;99.90
22813;DHT22;11573;51.334;3.244;2023-03-01T14:38:02;7.20;99.90
22813;DHT22;11573;51.334;3.244;2023-03-01T14:40:32;7.30;99.90
22813;DHT22;11573;51.334;3.244;2023-03-01T14:43:09;7.20;99.90
22813;DHT22;11573;51.334;3.244;2023-03-01T14:45:37;7.20;99.90
22813;DHT22;11573;51.334;3.244;2023-03-01T14:48:06;7.10;99.90
22813;DHT22;11573;51.334;3.244;2023-03-01T14:50:35;7.10;99.90
22813;DHT22;11573;51.334;3.244;2023-03-01T14:53:18;7.10;99.90
22813;DHT22;11573;51.334;3.244;2023-03-01T14:55:50;7.10;99.90
22813;DHT22;11573;51.334;3.244;2023-03-01T14:58:22;7.20;99.90
22813;DHT22;11573;51.334;3.244;2023-03-01T15:00:57;7.30;99.90
22813;DHT22;11573;51.334;3.244;2023-03-01T15:03:35;7.30;99.90
22813;DHT22;11573;51.334;3.244;2023-03-01T15:06:06;7.30;99.90
22813;DHT22;11573;51.334;3.244;2023-03-01T15:08:35;7.10;1.00
22813;DHT22;11573;51.334;3.244;2023-03-01T15:11:23;6.90;1.00
22813;DHT22;11573;51.334;3.244;2023-03-01T15:13:52;6.80;1.00
22813;DHT22;11573;51.334;3.244;2023-03-01T15:16:32;6.90;1.00
22813;DHT22;11573;51.334;3.244;2023-03-01T15:19:02;6.80;1.00
22813;DHT22;11573;51.334;3.244;2023-03-01T15:21:35;6.70;1.00
22813;DHT22;11573;51.334;3.244;2023-03-01T15:26:52;6.80;1.00
22813;DHT22;11573;51.334;3.244;2023-03-01T15:29:24;6.90;1.00
22813;DHT22;11573;51.334;3.244;2023-03-01T15:32:03;6.90;1.00
22813;DHT22;11573;51.334;3.244;2023-03-01T15:34:37;6.90;1.00
22813;DHT22;11573;51.334;3.244;2023-03-01T15:37:06;6.90;1.00
22813;DHT22;11573;51.334;3.244;2023-03-01T15:39:56;7.00;1.00
22813;DHT22;11573;51.334;3.244;2023-03-01T15:47:49;6.90;1.00
22813;DHT22;11573;51.334;3.244;2023-03-01T15:50:22;6.90;1.00
22813;DHT22;11573;51.334;3.244;2023-03-01T15:52:50;6.90;99.90
22813;DHT22;11573;51.334;3.244;2023-03-01T15:55:24;6.90;99.90
22813;DHT22;11573;51.334;3.244;2023-03-01T15:58:21;6.90;99.90
22813;DHT22;11573;51.334;3.244;2023-03-01T16:00:46;6.80;99.90
22813;DHT22;11573;51.334;3.244;2023-03-01T16:03:27;6.80;99.90
22813;DHT22;11573;51.334;3.244;2023-03-01T16:05:54;6.80;99.90
22813;DHT22;11573;51.334;3.244;2023-03-01T16:08:22;6.80;99.90
22813;DHT22;11573;51.334;3.244;2023-03-01T16:10:49;6.80;99.90
22813;DHT22;11573;51.334;3.244;2023-03-01T16:13:18;6.70;99.90
22813;DHT22;11573;51.334;3.244;2023-03-01T16:15:46;6.70;99.90
22813;DHT22;11573;51.334;3.244;2023-03-01T16:18:13;6.60;99.90
22813;DHT22;11573;51.334;3.244;2023-03-01T16:20:40;6.60;1.00
22813;DHT22;11573;51.334;3.244;2023-03-01T16:23:10;6.60;1.00
22813;DHT22;11573;51.334;3.244;2023-03-01T16:25:37;6.50;1.00
22813;DHT22;11573;51.334;3.244;2023-03-01T16:28:04;6.40;1.00
22813;DHT22;11573;51.334;3.244;2023-03-01T16:30:39;6.40;1.00
22813;DHT22;11573;51.334;3.244;2023-03-01T16:33:07;6.40;1.00
22813;DHT22;11573;51.334;3.244;2023-03-01T16:35:52;6.30;1.00
22813;DHT22;11573;51.334;3.244;2023-03-01T16:38:31;6.30;99.90
22813;DHT22;11573;51.334;3.244;2023-03-01T16:40:58;6.40;1.00
22813;DHT22;11573;51.334;3.244;2023-03-01T16:43:25;6.40;1.00
22813;DHT22;11573;51.334;3.244;2023-03-01T16:45:52;6.40;1.00
22813;DHT22;11573;51.334;3.244;2023-03-01T16:48:19;6.30;1.00
22813;DHT22;11573;51.334;3.244;2023-03-01T16:50:58;6.30;1.00
22813;DHT22;11573;51.334;3.244;2023-03-01T16:53:27;6.20;1.00
22813;DHT22;11573;51.334;3.244;2023-03-01T16:55:55;6.30;1.00
22813;DHT22;11573;51.334;3.244;2023-03-01T16:58:23;6.30;1.00
22813;DHT22;11573;51.334;3.244;2023-03-01T17:00:55;6.30;1.00
22813;DHT22;11573;51.334;3.244;2023-03-01T17:03:24;6.20;1.00
22813;DHT22;11573;51.334;3.244;2023-03-01T17:05:52;6.10;1.00
22813;DHT22;11573;51.334;3.244;2023-03-01T17:08:19;5.90;1.00
22813;DHT22;11573;51.334;3.244;2023-03-01T17:10:46;5.90;1.00
22813;DHT22;11573;51.334;3.244;2023-03-01T17:13:14;5.90;99.90
22813;DHT22;11573;51.334;3.244;2023-03-01T17:15:41;5.90;99.90
22813;DHT22;11573;51.334;3.244;2023-03-01T17:18:09;5.80;99.90
22813;DHT22;11573;51.334;3.244;2023-03-01T17:20:36;5.80;99.90
22813;DHT22;11573;51.334;3.244;2023-03-01T17:23:03;5.70;99.90
22813;DHT22;11573;51.334;3.244;2023-03-01T17:25:30;5.70;99.90
22813;DHT22;11573;51.334;3.244;2023-03-01T17:27:57;5.60;99.90
22813;DHT22;11573;51.334;3.244;2023-03-01T17:30:24;5.60;99.90
22813;DHT22;11573;51.334;3.244;2023-03-01T17:32:51;5.60;99.90
22813;DHT22;11573;51.334;3.244;2023-03-01T17:35:21;5.50;1.00
22813;DHT22;11573;51.334;3.244;2023-03-01T17:37:49;5.50;99.90
22813;DHT22;11573;51.334;3.244;2023-03-01T17:40:16;5.40;99.90
22813;DHT22;11573;51.334;3.244;2023-03-01T17:42:43;5.40;99.90
22813;DHT22;11573;51.334;3.244;2023-03-01T17:45:11;5.40;99.90
22813;DHT22;11573;51.334;3.244;2023-03-01T17:47:38;5.40;99.90
22813;DHT22;11573;51.334;3.244;2023-03-01T17:50:05;5.40;99.90
22813;DHT22;11573;51.334;3.244;2023-03-01T17:52:34;5.40;1.00
22813;DHT22;11573;51.334;3.244;2023-03-01T17:55:01;5.40;1.00
22813;DHT22;11573;51.334;3.244;2023-03-01T17:57:28;5.30;1.00
22813;DHT22;11573;51.334;3.244;2023-03-01T17:59:55;5.30;1.00
22813;DHT22;11573;51.334;3.244;2023-03-01T18:02:22;5.30;1.00
22813;DHT22;11573;51.334;3.244;2023-03-01T18:04:51;5.30;1.00
22813;DHT22;11573;51.334;3.244;2023-03-01T18:07:18;5.20;1.00
22813;DHT22;11573;51.334;3.244;2023-03-01T18:09:45;5.20;1.00
22813;DHT22;11573;51.334;3.244;2023-03-01T18:12:13;5.20;1.00
22813;DHT22;11573;51.334;3.244;2023-03-01T18:14:40;5.20;1.00
22813;DHT22;11573;51.334;3.244;2023-03-01T18:17:07;5.10;1.00
22813;DHT22;11573;51.334;3.244;2023-03-01T18:19:39;5.10;1.00
22813;DHT22;11573;51.334;3.244;2023-03-01T18:22:09;5.10;1.00
22813;DHT22;11573;51.334;3.244;2023-03-01T18:24:36;5.10;1.00